sensor_id;sensor_type;location;lat;lon;timestamp;pressure;altitude;pressure_sealevel;temperature;humidity
73171;BME280;61381;50.118;19.962;2022-09-09T00:01:28;98292.81;;;16.29;100.00
73171;BME280;61381;50.118;19.962;2022-09-09T00:06:31;98286.97;;;16.27;100.00
73171;BME280;61381;50.118;19.962;2022-09-09T00:11:39;98295.41;;;16.26;100.00
73171;BME280;61381;50.118;19.962;2022-09-09T00:16:43;98293.97;;;16.28;100.00
73171;BME280;61381;50.118;19.962;2022-09-09T00:21:55;98293.97;;;16.28;100.00
73171;BME280;61381;50.118;19.962;2022-09-09T00:27:04;98286.03;;;16.23;100.00
73171;BME280;61381;50.118;19.962;2022-09-09T00:32:13;98296.25;;;16.17;100.00
73171;BME280;61381;50.118;19.962;2022-09-09T00:37:15;98298.47;;;16.15;100.00
73171;BME280;61381;50.118;19.962;2022-09-09T00:42:18;98301.81;;;16.12;100.00
73171;BME280;61381;50.118;19.962;2022-09-09T00:47:39;98296.59;;;16.07;100.00
73171;BME280;61381;50.118;19.962;2022-09-09T00:52:48;98303.78;;;16.03;100.00
73171;BME280;61381;50.118;19.962;2022-09-09T00:57:56;98313.16;;;16.05;100.00
73171;BME280;61381;50.118;19.962;2022-09-09T01:03:11;98314.44;;;15.99;100.00
73171;BME280;61381;50.118;19.962;2022-09-09T01:08:29;98313.19;;;15.97;100.00
73171;BME280;61381;50.118;19.962;2022-09-09T01:13:35;98314.78;;;15.89;100.00
73171;BME280;61381;50.118;19.962;2022-09-09T01:18:40;98321.47;;;15.92;100.00
73171;BME280;61381;50.118;19.962;2022-09-09T01:23:59;98326.25;;;15.86;100.00
73171;BME280;61381;50.118;19.962;2022-09-09T01:29:09;98329.59;;;15.83;100.00
73171;BME280;61381;50.118;19.962;2022-09-09T01:34:11;98333.75;;;15.72;100.00
73171;BME280;61381;50.118;19.962;2022-09-09T01:39:12;98336.31;;;15.59;100.00
73171;BME280;61381;50.118;19.962;2022-09-09T01:44:15;98342.22;;;15.44;100.00
73171;BME280;61381;50.118;19.962;2022-09-09T01:49:17;98346.03;;;15.34;100.00
73171;BME280;61381;50.118;19.962;2022-09-09T01:54:18;98358.59;;;15.30;100.00
73171;BME280;61381;50.118;19.962;2022-09-09T01:59:45;98361.75;;;15.32;100.00
73171;BME280;61381;50.118;19.962;2022-09-09T02:04:49;98363.34;;;15.33;100.00
73171;BME280;61381;50.118;19.962;2022-09-09T02:09:57;98369.03;;;15.40;100.00
73171;BME280;61381;50.118;19.962;2022-09-09T02:15:04;98373.16;;;15.46;100.00
73171;BME280;61381;50.118;19.962;2022-09-09T02:20:12;98372.88;;;15.39;100.00
73171;BME280;61381;50.118;19.962;2022-09-09T02:25:16;98379.41;;;15.21;100.00
73171;BME280;61381;50.118;19.962;2022-09-09T02:30:20;98376.97;;;15.02;100.00
73171;BME280;61381;50.118;19.962;2022-09-09T02:35:23;98387.13;;;14.87;100.00
73171;BME280;61381;50.118;19.962;2022-09-09T02:40:25;98398.50;;;14.67;100.00
73171;BME280;61381;50.118;19.962;2022-09-09T02:45:32;98394.47;;;14.55;100.00
73171;BME280;61381;50.118;19.962;2022-09-09T02:50:35;98409.38;;;14.53;100.00
73171;BME280;61381;50.118;19.962;2022-09-09T02:55:39;98408.34;;;14.31;100.00
73171;BME280;61381;50.118;19.962;2022-09-09T03:00:42;98404.50;;;14.23;100.00
73171;BME280;61381;50.118;19.962;2022-09-09T03:05:44;98416.03;;;14.15;100.00
73171;BME280;61381;50.118;19.962;2022-09-09T03:10:45;98423.81;;;14.17;100.00
73171;BME280;61381;50.118;19.962;2022-09-09T03:15:47;98425.22;;;14.14;100.00
73171;BME280;61381;50.118;19.962;2022-09-09T03:20:48;98427.38;;;14.03;100.00
73171;BME280;61381;50.118;19.962;2022-09-09T03:25:49;98425.06;;;13.88;100.00
73171;BME280;61381;50.118;19.962;2022-09-09T03:30:51;98425.88;;;13.88;100.00
73171;BME280;61381;50.118;19.962;2022-09-09T03:35:52;98427.38;;;14.03;100.00
73171;BME280;61381;50.118;19.962;2022-09-09T03:40:54;98430.97;;;14.21;100.00
73171;BME280;61381;50.118;19.962;2022-09-09T03:45:57;98419.06;;;14.22;100.00
73171;BME280;61381;50.118;19.962;2022-09-09T03:50:57;98438.59;;;14.28;100.00
73171;BME280;61381;50.118;19.962;2022-09-09T03:55:58;98442.38;;;14.27;100.00
73171;BME280;61381;50.118;19.962;2022-09-09T04:01:02;98449.53;;;14.32;100.00
73171;BME280;61381;50.118;19.962;2022-09-09T04:06:05;98444.47;;;14.30;100.00
73171;BME280;61381;50.118;19.962;2022-09-09T04:11:06;98447.31;;;14.25;100.00
73171;BME280;61381;50.118;19.962;2022-09-09T04:16:10;98452.31;;;14.09;100.00
73171;BME280;61381;50.118;19.962;2022-09-09T04:21:11;98455.09;;;14.04;100.00
73171;BME280;61381;50.118;19.962;2022-09-09T04:26:12;98454.84;;;14.14;100.00
73171;BME280;61381;50.118;19.962;2022-09-09T04:31:16;98447.56;;;14.15;100.00
73171;BME280;61381;50.118;19.962;2022-09-09T04:36:17;98444.75;;;14.20;100.00
73171;BME280;61381;50.118;19.962;2022-09-09T04:41:18;98443.72;;;14.38;100.00
73171;BME280;61381;50.118;19.962;2022-09-09T04:46:21;98443.97;;;14.59;100.00
73171;BME280;61381;50.118;19.962;2022-09-09T04:51:22;98448.66;;;14.85;100.00
73171;BME280;61381;50.118;19.962;2022-09-09T04:56:23;98452.69;;;14.96;100.00
73171;BME280;61381;50.118;19.962;2022-09-09T05:01:25;98454.47;;;15.19;100.00
73171;BME280;61381;50.118;19.962;2022-09-09T05:06:26;98453.06;;;15.47;100.00
73171;BME280;61381;50.118;19.962;2022-09-09T05:11:28;98458.16;;;15.93;100.00
73171;BME280;61381;50.118;19.962;2022-09-09T05:16:30;98463.00;;;16.73;100.00
73171;BME280;61381;50.118;19.962;2022-09-09T05:21:31;98469.59;;;16.93;99.54
73171;BME280;61381;50.118;19.962;2022-09-09T05:26:32;98475.53;;;17.37;96.24
73171;BME280;61381;50.118;19.962;2022-09-09T05:31:34;98473.53;;;17.25;95.90
73171;BME280;61381;50.118;19.962;2022-09-09T05:36:35;98482.56;;;17.08;96.46
73171;BME280;61381;50.118;19.962;2022-09-09T05:41:36;98480.16;;;16.77;96.59
73171;BME280;61381;50.118;19.962;2022-09-09T05:46:38;98483.22;;;16.67;96.83
73171;BME280;61381;50.118;19.962;2022-09-09T05:51:39;98485.16;;;16.57;97.04
73171;BME280;61381;50.118;19.962;2022-09-09T05:56:40;98490.47;;;16.45;98.50
73171;BME280;61381;50.118;19.962;2022-09-09T06:01:42;98490.81;;;16.35;99.23
73171;BME280;61381;50.118;19.962;2022-09-09T06:06:43;98493.53;;;16.26;99.52
73171;BME280;61381;50.118;19.962;2022-09-09T06:11:44;98498.28;;;16.38;99.04
73171;BME280;61381;50.118;19.962;2022-09-09T06:16:46;98506.06;;;16.39;98.36
73171;BME280;61381;50.118;19.962;2022-09-09T06:21:47;98514.19;;;16.87;96.40
73171;BME280;61381;50.118;19.962;2022-09-09T06:26:48;98514.34;;;17.20;94.42
73171;BME280;61381;50.118;19.962;2022-09-09T06:31:50;98517.22;;;17.45;91.57
73171;BME280;61381;50.118;19.962;2022-09-09T06:36:51;98518.31;;;16.84;93.51
73171;BME280;61381;50.118;19.962;2022-09-09T06:41:52;98509.84;;;16.56;94.05
73171;BME280;61381;50.118;19.962;2022-09-09T06:46:54;98512.13;;;16.92;91.48
73171;BME280;61381;50.118;19.962;2022-09-09T06:51:55;98507.78;;;17.00;91.41
73171;BME280;61381;50.118;19.962;2022-09-09T06:56:56;98512.44;;;17.21;90.56
73171;BME280;61381;50.118;19.962;2022-09-09T07:01:58;98513.78;;;17.06;91.52
73171;BME280;61381;50.118;19.962;2022-09-09T07:06:59;98521.03;;;17.44;87.64
73171;BME280;61381;50.118;19.962;2022-09-09T07:12:00;98510.63;;;17.34;89.65
73171;BME280;61381;50.118;19.962;2022-09-09T07:17:02;98515.59;;;17.74;87.81
73171;BME280;61381;50.118;19.962;2022-09-09T07:22:03;98519.72;;;17.50;88.72
73171;BME280;61381;50.118;19.962;2022-09-09T07:27:04;98519.81;;;17.41;89.79
73171;BME280;61381;50.118;19.962;2022-09-09T07:32:06;98503.09;;;17.09;90.35
73171;BME280;61381;50.118;19.962;2022-09-09T07:37:07;98506.03;;;17.25;90.06
73171;BME280;61381;50.118;19.962;2022-09-09T07:42:08;98506.34;;;17.54;88.69
73171;BME280;61381;50.118;19.962;2022-09-09T07:47:10;98502.03;;;17.74;88.10
73171;BME280;61381;50.118;19.962;2022-09-09T07:52:11;98519.88;;;17.96;87.04
73171;BME280;61381;50.118;19.962;2022-09-09T07:57:12;98509.66;;;18.47;81.40
73171;BME280;61381;50.118;19.962;2022-09-09T08:02:14;98509.31;;;18.49;80.57
73171;BME280;61381;50.118;19.962;2022-09-09T08:07:15;98506.44;;;19.03;80.73
73171;BME280;61381;50.118;19.962;2022-09-09T08:12:16;98509.50;;;19.02;78.92
73171;BME280;61381;50.118;19.962;2022-09-09T08:17:18;98507.22;;;18.79;78.30
73171;BME280;61381;50.118;19.962;2022-09-09T08:22:19;98525.41;;;18.79;79.41
73171;BME280;61381;50.118;19.962;2022-09-09T08:27:20;98524.56;;;19.12;77.20
73171;BME280;61381;50.118;19.962;2022-09-09T08:32:22;98516.72;;;19.47;73.41
73171;BME280;61381;50.118;19.962;2022-09-09T08:37:23;98526.03;;;19.74;73.77
73171;BME280;61381;50.118;19.962;2022-09-09T08:42:35;98519.97;;;19.65;73.84
73171;BME280;61381;50.118;19.962;2022-09-09T08:47:49;98528.81;;;20.03;73.33
73171;BME280;61381;50.118;19.962;2022-09-09T08:52:59;98532.41;;;20.07;71.82
73171;BME280;61381;50.118;19.962;2022-09-09T08:58:09;98528.88;;;19.78;70.18
73171;BME280;61381;50.118;19.962;2022-09-09T09:03:17;98525.25;;;20.14;70.97
73171;BME280;61381;50.118;19.962;2022-09-09T09:08:28;98537.22;;;21.18;64.91
73171;BME280;61381;50.118;19.962;2022-09-09T09:13:34;98541.28;;;22.38;63.46
73171;BME280;61381;50.118;19.962;2022-09-09T09:18:37;98540.41;;;22.14;63.20
73171;BME280;61381;50.118;19.962;2022-09-09T09:23:42;98530.41;;;21.28;63.27
73171;BME280;61381;50.118;19.962;2022-09-09T09:28:46;98531.13;;;21.25;64.31
73171;BME280;61381;50.118;19.962;2022-09-09T09:33:49;98537.59;;;21.71;58.08
73171;BME280;61381;50.118;19.962;2022-09-09T09:38:54;98540.50;;;22.37;58.05
73171;BME280;61381;50.118;19.962;2022-09-09T09:43:56;98527.34;;;22.66;55.72
73171;BME280;61381;50.118;19.962;2022-09-09T09:48:59;98534.25;;;22.83;57.72
73171;BME280;61381;50.118;19.962;2022-09-09T09:54:09;98525.78;;;22.88;55.14
73171;BME280;61381;50.118;19.962;2022-09-09T09:59:33;98522.41;;;22.98;56.09
73171;BME280;61381;50.118;19.962;2022-09-09T10:04:36;98528.50;;;23.11;53.71
73171;BME280;61381;50.118;19.962;2022-09-09T10:09:37;98529.25;;;22.62;54.52
73171;BME280;61381;50.118;19.962;2022-09-09T10:14:41;98524.00;;;23.00;56.67
73171;BME280;61381;50.118;19.962;2022-09-09T10:19:58;98507.81;;;23.37;54.58
73171;BME280;61381;50.118;19.962;2022-09-09T10:25:26;98516.34;;;23.09;55.78
73171;BME280;61381;50.118;19.962;2022-09-09T10:30:33;98516.34;;;23.66;53.00
73171;BME280;61381;50.118;19.962;2022-09-09T10:35:41;98516.72;;;23.91;50.53
73171;BME280;61381;50.118;19.962;2022-09-09T10:41:13;98509.41;;;24.81;48.34
73171;BME280;61381;50.118;19.962;2022-09-09T10:46:20;98514.00;;;25.22;47.57
73171;BME280;61381;50.118;19.962;2022-09-09T10:51:30;98524.69;;;25.34;47.29
73171;BME280;61381;50.118;19.962;2022-09-09T10:56:36;98525.88;;;25.37;45.57
73171;BME280;61381;50.118;19.962;2022-09-09T11:01:39;98509.97;;;25.68;44.38
73171;BME280;61381;50.118;19.962;2022-09-09T11:06:47;98515.13;;;25.73;42.71
73171;BME280;61381;50.118;19.962;2022-09-09T11:11:52;98516.97;;;25.54;44.16
73171;BME280;61381;50.118;19.962;2022-09-09T11:16:57;98518.94;;;25.57;43.92
73171;BME280;61381;50.118;19.962;2022-09-09T11:22:01;98520.78;;;25.35;44.38
73171;BME280;61381;50.118;19.962;2022-09-09T11:27:08;98517.00;;;25.58;43.95
73171;BME280;61381;50.118;19.962;2022-09-09T11:32:24;98508.28;;;26.47;42.88
73171;BME280;61381;50.118;19.962;2022-09-09T11:38:01;98512.59;;;26.34;43.05
73171;BME280;61381;50.118;19.962;2022-09-09T11:43:10;98511.66;;;24.68;46.59
73171;BME280;61381;50.118;19.962;2022-09-09T11:48:23;98506.28;;;24.04;49.90
73171;BME280;61381;50.118;19.962;2022-09-09T11:53:27;98499.75;;;24.12;47.68
73171;BME280;61381;50.118;19.962;2022-09-09T11:58:29;98505.06;;;24.35;47.65
73171;BME280;61381;50.118;19.962;2022-09-09T12:03:36;98512.06;;;24.33;46.67
73171;BME280;61381;50.118;19.962;2022-09-09T12:08:43;98509.91;;;24.49;45.66
73171;BME280;61381;50.118;19.962;2022-09-09T12:13:52;98511.13;;;25.63;41.82
73171;BME280;61381;50.118;19.962;2022-09-09T12:19:03;98510.25;;;25.41;41.93
73171;BME280;61381;50.118;19.962;2022-09-09T12:24:09;98505.72;;;25.77;39.00
73171;BME280;61381;50.118;19.962;2022-09-09T12:29:21;98502.00;;;24.85;42.28
73171;BME280;61381;50.118;19.962;2022-09-09T12:34:33;98498.19;;;25.56;43.28
73171;BME280;61381;50.118;19.962;2022-09-09T12:39:43;98504.09;;;25.69;40.28
73171;BME280;61381;50.118;19.962;2022-09-09T12:44:56;98498.81;;;26.27;38.86
73171;BME280;61381;50.118;19.962;2022-09-09T12:49:57;98495.59;;;25.96;40.27
73171;BME280;61381;50.118;19.962;2022-09-09T12:55:02;98488.69;;;25.46;40.50
73171;BME280;61381;50.118;19.962;2022-09-09T13:00:06;98509.53;;;24.54;42.33
73171;BME280;61381;50.118;19.962;2022-09-09T13:05:15;98502.75;;;24.82;42.70
73171;BME280;61381;50.118;19.962;2022-09-09T13:10:24;98504.59;;;24.26;43.16
73171;BME280;61381;50.118;19.962;2022-09-09T13:15:28;98492.72;;;24.15;43.66
73171;BME280;61381;50.118;19.962;2022-09-09T13:20:30;98489.34;;;24.29;42.63
73171;BME280;61381;50.118;19.962;2022-09-09T13:25:32;98489.78;;;24.75;42.42
73171;BME280;61381;50.118;19.962;2022-09-09T13:30:34;98482.03;;;24.81;44.24
73171;BME280;61381;50.118;19.962;2022-09-09T13:35:46;98486.78;;;24.47;44.20
73171;BME280;61381;50.118;19.962;2022-09-09T13:40:57;98482.47;;;24.46;44.66
73171;BME280;61381;50.118;19.962;2022-09-09T13:45:59;98477.00;;;24.46;45.09
73171;BME280;61381;50.118;19.962;2022-09-09T13:51:02;98474.44;;;24.64;42.91
73171;BME280;61381;50.118;19.962;2022-09-09T13:56:05;98477.72;;;24.39;44.65
73171;BME280;61381;50.118;19.962;2022-09-09T14:01:06;98467.56;;;24.84;42.56
73171;BME280;61381;50.118;19.962;2022-09-09T14:06:07;98476.19;;;24.04;44.88
73171;BME280;61381;50.118;19.962;2022-09-09T14:11:12;98467.16;;;24.00;45.45
73171;BME280;61381;50.118;19.962;2022-09-09T14:16:13;98469.56;;;24.05;45.59
73171;BME280;61381;50.118;19.962;2022-09-09T14:21:14;98465.81;;;24.65;43.14
73171;BME280;61381;50.118;19.962;2022-09-09T14:26:16;98464.59;;;24.59;43.86
73171;BME280;61381;50.118;19.962;2022-09-09T14:31:18;98468.41;;;24.06;46.18
73171;BME280;61381;50.118;19.962;2022-09-09T14:36:19;98462.63;;;23.50;48.65
73171;BME280;61381;50.118;19.962;2022-09-09T14:41:21;98460.69;;;23.21;47.78
73171;BME280;61381;50.118;19.962;2022-09-09T14:46:22;98445.91;;;22.98;48.58
73171;BME280;61381;50.118;19.962;2022-09-09T14:51:24;98438.72;;;22.87;48.94
73171;BME280;61381;50.118;19.962;2022-09-09T14:56:28;98439.91;;;22.89;50.10
73171;BME280;61381;50.118;19.962;2022-09-09T15:01:31;98440.56;;;22.79;49.29
73171;BME280;61381;50.118;19.962;2022-09-09T15:06:34;98436.78;;;22.87;49.31
73171;BME280;61381;50.118;19.962;2022-09-09T15:11:37;98437.13;;;22.86;49.83
73171;BME280;61381;50.118;19.962;2022-09-09T15:16:38;98445.91;;;22.72;50.61
73171;BME280;61381;50.118;19.962;2022-09-09T15:21:39;98450.25;;;22.50;51.28
73171;BME280;61381;50.118;19.962;2022-09-09T15:26:41;98440.06;;;22.47;52.08
73171;BME280;61381;50.118;19.962;2022-09-09T15:31:42;98433.81;;;22.26;53.00
73171;BME280;61381;50.118;19.962;2022-09-09T15:36:44;98440.78;;;22.01;53.39
73171;BME280;61381;50.118;19.962;2022-09-09T15:41:47;98439.16;;;21.96;53.48
73171;BME280;61381;50.118;19.962;2022-09-09T15:46:51;98443.47;;;21.78;53.43
73171;BME280;61381;50.118;19.962;2022-09-09T15:51:55;98445.50;;;21.45;54.63
73171;BME280;61381;50.118;19.962;2022-09-09T15:57:00;98454.81;;;21.25;55.91
73171;BME280;61381;50.118;19.962;2022-09-09T16:02:01;98444.94;;;21.36;56.72
73171;BME280;61381;50.118;19.962;2022-09-09T16:07:04;98455.28;;;21.46;55.29
73171;BME280;61381;50.118;19.962;2022-09-09T16:12:07;98450.13;;;21.61;56.04
73171;BME280;61381;50.118;19.962;2022-09-09T16:17:08;98454.84;;;21.44;55.73
73171;BME280;61381;50.118;19.962;2022-09-09T16:22:09;98460.09;;;21.17;57.01
73171;BME280;61381;50.118;19.962;2022-09-09T16:27:11;98448.25;;;20.74;57.99
73171;BME280;61381;50.118;19.962;2022-09-09T16:32:12;98462.19;;;20.41;60.27
73171;BME280;61381;50.118;19.962;2022-09-09T16:37:13;98457.94;;;20.11;60.76
73171;BME280;61381;50.118;19.962;2022-09-09T16:42:15;98451.84;;;19.86;62.24
73171;BME280;61381;50.118;19.962;2022-09-09T16:47:16;98455.50;;;19.66;63.04
73171;BME280;61381;50.118;19.962;2022-09-09T16:52:17;98447.53;;;19.45;64.45
73171;BME280;61381;50.118;19.962;2022-09-09T16:57:19;98440.13;;;19.17;66.14
73171;BME280;61381;50.118;19.962;2022-09-09T17:02:20;98448.53;;;18.99;66.55
73171;BME280;61381;50.118;19.962;2022-09-09T17:07:21;98452.25;;;18.70;68.09
73171;BME280;61381;50.118;19.962;2022-09-09T17:12:26;98448.97;;;18.52;69.46
73171;BME280;61381;50.118;19.962;2022-09-09T17:17:27;98442.59;;;18.35;68.52
73171;BME280;61381;50.118;19.962;2022-09-09T17:22:27;98459.78;;;18.27;70.23
73171;BME280;61381;50.118;19.962;2022-09-09T17:27:30;98455.22;;;18.19;70.58
73171;BME280;61381;50.118;19.962;2022-09-09T17:32:31;98466.28;;;18.14;71.14
73171;BME280;61381;50.118;19.962;2022-09-09T17:37:31;98467.19;;;18.06;72.00
73171;BME280;61381;50.118;19.962;2022-09-09T17:42:34;98479.59;;;18.07;72.58
73171;BME280;61381;50.118;19.962;2022-09-09T17:47:35;98476.44;;;18.05;72.77
73171;BME280;61381;50.118;19.962;2022-09-09T17:52:35;98481.16;;;17.95;73.73
73171;BME280;61381;50.118;19.962;2022-09-09T17:57:38;98487.25;;;17.92;73.63
73171;BME280;61381;50.118;19.962;2022-09-09T18:02:38;98487.25;;;17.92;74.05
73171;BME280;61381;50.118;19.962;2022-09-09T18:07:39;98494.75;;;17.87;73.94
73171;BME280;61381;50.118;19.962;2022-09-09T18:12:41;98487.50;;;17.78;74.80
73171;BME280;61381;50.118;19.962;2022-09-09T18:17:42;98490.72;;;17.72;75.22
73171;BME280;61381;50.118;19.962;2022-09-09T18:22:43;98492.84;;;17.66;75.65
73171;BME280;61381;50.118;19.962;2022-09-09T18:27:47;98500.59;;;17.55;76.25
73171;BME280;61381;50.118;19.962;2022-09-09T18:32:48;98505.72;;;17.48;76.66
73171;BME280;61381;50.118;19.962;2022-09-09T18:37:49;98515.97;;;17.42;77.29
73171;BME280;61381;50.118;19.962;2022-09-09T18:42:51;98512.91;;;17.23;78.66
73171;BME280;61381;50.118;19.962;2022-09-09T18:47:52;98511.03;;;17.15;79.16
73171;BME280;61381;50.118;19.962;2022-09-09T18:52:53;98509.97;;;17.07;79.79
73171;BME280;61381;50.118;19.962;2022-09-09T18:57:55;98511.88;;;17.06;80.28
73171;BME280;61381;50.118;19.962;2022-09-09T19:02:56;98504.25;;;17.00;79.89
73171;BME280;61381;50.118;19.962;2022-09-09T19:07:57;98509.03;;;17.03;79.20
73171;BME280;61381;50.118;19.962;2022-09-09T19:12:59;98517.75;;;17.08;79.36
73171;BME280;61381;50.118;19.962;2022-09-09T19:18:00;98517.97;;;16.94;81.17
73171;BME280;61381;50.118;19.962;2022-09-09T19:23:01;98513.56;;;16.81;79.96
73171;BME280;61381;50.118;19.962;2022-09-09T19:28:03;98511.00;;;16.85;80.12
73171;BME280;61381;50.118;19.962;2022-09-09T19:33:04;98502.28;;;16.88;79.58
73171;BME280;61381;50.118;19.962;2022-09-09T19:38:05;98506.09;;;16.87;79.12
73171;BME280;61381;50.118;19.962;2022-09-09T19:43:07;98501.19;;;16.71;80.15
73171;BME280;61381;50.118;19.962;2022-09-09T19:48:08;98503.78;;;16.59;81.00
73171;BME280;61381;50.118;19.962;2022-09-09T19:53:09;98504.94;;;16.40;82.28
73171;BME280;61381;50.118;19.962;2022-09-09T19:58:11;98513.38;;;16.39;82.79
73171;BME280;61381;50.118;19.962;2022-09-09T20:03:12;98513.09;;;16.79;80.86
73171;BME280;61381;50.118;19.962;2022-09-09T20:08:13;98522.31;;;16.87;80.81
73171;BME280;61381;50.118;19.962;2022-09-09T20:13:15;98519.59;;;16.78;81.62
73171;BME280;61381;50.118;19.962;2022-09-09T20:18:16;98506.59;;;16.71;82.92
73171;BME280;61381;50.118;19.962;2022-09-09T20:23:17;98511.06;;;16.67;84.30
73171;BME280;61381;50.118;19.962;2022-09-09T20:28:20;98511.75;;;16.55;85.43
73171;BME280;61381;50.118;19.962;2022-09-09T20:33:21;98522.72;;;16.50;87.07
73171;BME280;61381;50.118;19.962;2022-09-09T20:38:22;98521.63;;;16.43;88.42
73171;BME280;61381;50.118;19.962;2022-09-09T20:43:24;98521.19;;;16.32;89.65
73171;BME280;61381;50.118;19.962;2022-09-09T20:48:25;98524.06;;;16.27;90.52
73171;BME280;61381;50.118;19.962;2022-09-09T20:53:26;98521.06;;;16.19;91.50
73171;BME280;61381;50.118;19.962;2022-09-09T20:58:29;98514.69;;;16.15;92.12
73171;BME280;61381;50.118;19.962;2022-09-09T21:03:32;98506.44;;;16.12;93.01
73171;BME280;61381;50.118;19.962;2022-09-09T21:08:34;98510.88;;;16.08;93.73
73171;BME280;61381;50.118;19.962;2022-09-09T21:13:37;98517.41;;;15.98;94.26
73171;BME280;61381;50.118;19.962;2022-09-09T21:18:39;98523.00;;;15.93;95.25
73171;BME280;61381;50.118;19.962;2022-09-09T21:23:40;98526.16;;;15.86;96.13
73171;BME280;61381;50.118;19.962;2022-09-09T21:28:43;98530.13;;;15.80;97.20
73171;BME280;61381;50.118;19.962;2022-09-09T21:33:44;98526.00;;;15.82;97.26
73171;BME280;61381;50.118;19.962;2022-09-09T21:38:45;98501.53;;;15.79;97.82
73171;BME280;61381;50.118;19.962;2022-09-09T21:43:51;98503.09;;;15.71;98.34
73171;BME280;61381;50.118;19.962;2022-09-09T21:48:52;98499.91;;;15.69;98.67
73171;BME280;61381;50.118;19.962;2022-09-09T21:53:54;98501.66;;;15.65;99.20
73171;BME280;61381;50.118;19.962;2022-09-09T21:58:58;98524.72;;;15.62;99.41
73171;BME280;61381;50.118;19.962;2022-09-09T22:03:59;98530.56;;;15.56;100.00
73171;BME280;61381;50.118;19.962;2022-09-09T22:09:00;98519.13;;;15.50;100.00
73171;BME280;61381;50.118;19.962;2022-09-09T22:14:02;98503.56;;;15.47;100.00
73171;BME280;61381;50.118;19.962;2022-09-09T22:19:03;98485.94;;;15.41;100.00
73171;BME280;61381;50.118;19.962;2022-09-09T22:24:05;98486.88;;;15.36;100.00
73171;BME280;61381;50.118;19.962;2022-09-09T22:29:07;98488.31;;;15.33;100.00
73171;BME280;61381;50.118;19.962;2022-09-09T22:34:08;98484.66;;;15.38;100.00
73171;BME280;61381;50.118;19.962;2022-09-09T22:39:09;98487.00;;;15.31;100.00
73171;BME280;61381;50.118;19.962;2022-09-09T22:44:11;98478.78;;;15.27;100.00
73171;BME280;61381;50.118;19.962;2022-09-09T22:49:12;98487.81;;;15.23;100.00
73171;BME280;61381;50.118;19.962;2022-09-09T22:54:13;98491.44;;;15.18;100.00
73171;BME280;61381;50.118;19.962;2022-09-09T22:59:16;98469.53;;;15.11;100.00
73171;BME280;61381;50.118;19.962;2022-09-09T23:04:17;98467.44;;;14.99;100.00
73171;BME280;61381;50.118;19.962;2022-09-09T23:09:18;98465.66;;;14.94;100.00
73171;BME280;61381;50.118;19.962;2022-09-09T23:14:20;98469.94;;;14.87;100.00
73171;BME280;61381;50.118;19.962;2022-09-09T23:19:21;98457.38;;;14.82;100.00
73171;BME280;61381;50.118;19.962;2022-09-09T23:24:21;98464.69;;;14.82;100.00
73171;BME280;61381;50.118;19.962;2022-09-09T23:29:23;98452.47;;;14.75;100.00
73171;BME280;61381;50.118;19.962;2022-09-09T23:34:24;98441.66;;;14.75;100.00
73171;BME280;61381;50.118;19.962;2022-09-09T23:39:25;98436.28;;;14.75;100.00
73171;BME280;61381;50.118;19.962;2022-09-09T23:44:27;98438.19;;;14.75;100.00
73171;BME280;61381;50.118;19.962;2022-09-09T23:49:28;98442.00;;;14.74;100.00
73171;BME280;61381;50.118;19.962;2022-09-09T23:54:29;98448.78;;;14.71;100.00
73171;BME280;61381;50.118;19.962;2022-09-09T23:59:31;98447.34;;;14.65;100.00
